Time;durP1;ratioP1;P1;durP2;ratioP2;P2;SDS_P1;SDS_P2;PMS_P1;PMS_P2;Temp;Humidity;BMP_temperature;BMP_pressure;BME280_temperature;BME280_humidity;BME280_pressure;Samples;Min_cycle;Max_cycle;Signal;HPM_P1;HPM_P2
2024/04/09 00:01:20;;;;;;;18.48;12.27;;;15.40;99.90;;;;;;5502900;25;20041;-71
2024/04/09 00:03:47;;;;;;;19.75;11.95;;;15.40;99.90;;;;;;5542114;25;20036;-71
2024/04/09 00:06:14;;;;;;;21.88;13.10;;;15.40;99.90;;;;;;5506233;25;20032;-70
2024/04/09 00:08:44;;;;;;;23.50;13.05;;;15.40;99.90;;;;;;5521809;25;20041;-70
2024/04/09 00:11:21;;;;;;;22.55;13.23;;;15.40;99.90;;;;;;5497519;25;20034;-71
2024/04/09 00:13:51;;;;;;;32.20;15.05;;;15.30;99.90;;;;;;5534684;25;20032;-70
2024/04/09 00:16:27;;;;;;;21.38;11.35;;;15.30;99.90;;;;;;5517017;25;20037;-70
2024/04/09 00:18:55;;;;;;;26.98;12.52;;;15.30;99.90;;;;;;5503116;25;20035;-69
2024/04/09 00:21:23;;;;;;;22.40;11.98;;;15.40;99.90;;;;;;5517601;25;20032;-69
2024/04/09 00:23:50;;;;;;;21.13;11.63;;;15.30;99.90;;;;;;5546172;25;20028;-70
2024/04/09 00:26:17;;;;;;;24.45;12.10;;;15.40;99.90;;;;;;5503416;25;20379;-69
2024/04/09 00:28:44;;;;;;;23.85;11.73;;;15.40;99.90;;;;;;5506509;25;20088;-69
2024/04/09 00:31:13;;;;;;;22.92;11.80;;;15.40;99.90;;;;;;5541712;25;20052;-69
2024/04/09 00:33:40;;;;;;;23.63;12.63;;;15.30;99.90;;;;;;5543268;25;20030;-69
2024/04/09 00:36:09;;;;;;;22.88;12.70;;;15.10;99.90;;;;;;5506484;25;20029;-69
2024/04/09 00:38:38;;;;;;;24.98;12.55;;;15.30;99.90;;;;;;5516722;25;20026;-69
2024/04/09 00:41:06;;;;;;;24.05;12.98;;;15.30;99.90;;;;;;5505951;25;20037;-69
2024/04/09 00:43:34;;;;;;;23.65;12.15;;;15.30;99.90;;;;;;5537993;25;20033;-69
2024/04/09 00:46:01;;;;;;;23.67;13.27;;;15.30;99.90;;;;;;5510368;25;20053;-69
2024/04/09 00:48:28;;;;;;;18.33;12.10;;;15.30;99.90;;;;;;5509032;25;20037;-69
2024/04/09 00:50:56;;;;;;;22.70;12.20;;;15.20;99.90;;;;;;5519092;25;20034;-69
2024/04/09 00:53:24;;;;;;;26.55;12.25;;;15.30;99.90;;;;;;5542309;25;20020;-69
2024/04/09 00:55:52;;;;;;;21.30;12.65;;;15.20;99.90;;;;;;5507104;25;20419;-69
2024/04/09 00:58:20;;;;;;;19.73;12.65;;;15.20;99.90;;;;;;5504192;25;20029;-69
2024/04/09 01:00:48;;;;;;;24.77;11.60;;;15.20;99.90;;;;;;5500329;25;20470;-69
2024/04/09 01:03:15;;;;;;;21.25;12.18;;;15.20;99.90;;;;;;5520878;25;20030;-69
2024/04/09 01:05:42;;;;;;;22.55;11.65;;;15.10;99.90;;;;;;5513058;25;20022;-69
2024/04/09 01:08:08;;;;;;;22.75;12.25;;;15.10;99.90;;;;;;5498513;25;20444;-69
2024/04/09 01:10:35;;;;;;;22.95;11.48;;;15.10;99.90;;;;;;5501474;25;20045;-69
2024/04/09 01:13:02;;;;;;;22.65;11.73;;;15.10;99.90;;;;;;5534469;25;20025;-69
2024/04/09 01:15:30;;;;;;;22.52;11.10;;;15.10;99.90;;;;;;5509581;25;20037;-69
2024/04/09 01:17:57;;;;;;;23.90;12.13;;;15.10;99.90;;;;;;5500806;25;20026;-69
2024/04/09 01:20:24;;;;;;;23.83;12.32;;;15.10;99.90;;;;;;5500624;25;20037;-69
2024/04/09 01:22:50;;;;;;;22.83;11.88;;;15.10;99.90;;;;;;5498877;25;20033;-69
2024/04/09 01:25:17;;;;;;;23.67;12.05;;;15.10;99.90;;;;;;5539737;25;20037;-69
2024/04/09 01:27:44;;;;;;;22.42;11.30;;;15.10;99.90;;;;;;5509603;25;20116;-69
2024/04/09 01:30:12;;;;;;;20.80;12.55;;;15.10;99.90;;;;;;5519124;25;20376;-69
2024/04/09 01:32:40;;;;;;;23.95;12.65;;;15.10;99.90;;;;;;5518317;25;20033;-69
2024/04/09 01:35:08;;;;;;;26.02;11.57;;;15.10;99.90;;;;;;5526994;25;20026;-69
2024/04/09 01:37:36;;;;;;;21.42;10.80;;;15.20;99.90;;;;;;5515381;25;20374;-69
2024/04/09 01:40:04;;;;;;;20.02;11.70;;;15.20;99.90;;;;;;5502633;25;20026;-69
2024/04/09 01:42:31;;;;;;;18.38;11.52;;;15.20;99.90;;;;;;5500307;25;20030;-69
2024/04/09 01:44:58;;;;;;;25.40;12.25;;;15.10;99.90;;;;;;5498360;25;20034;-69
2024/04/09 01:47:25;;;;;;;18.10;11.73;;;15.20;99.90;;;;;;5488932;25;20489;-70
2024/04/09 01:49:52;;;;;;;24.05;12.40;;;15.10;99.90;;;;;;5506691;25;20034;-69
2024/04/09 01:52:22;;;;;;;26.98;12.80;;;15.20;99.90;;;;;;5507780;25;20025;-69
2024/04/09 01:54:49;;;;;;;22.67;12.27;;;15.10;99.90;;;;;;5520174;25;20033;-69
2024/04/09 01:57:16;;;;;;;21.40;12.13;;;15.20;99.90;;;;;;5507600;25;20120;-69
2024/04/09 01:59:43;;;;;;;20.27;11.68;;;15.10;99.90;;;;;;5497933;25;20041;-69
2024/04/09 02:02:10;;;;;;;20.13;11.63;;;15.10;99.90;;;;;;5523147;25;20395;-69
2024/04/09 02:04:37;;;;;;;18.17;12.02;;;15.10;99.90;;;;;;5515384;25;20038;-70
2024/04/09 02:07:04;;;;;;;19.15;12.43;;;15.10;99.90;;;;;;5518121;25;20025;-69
2024/04/09 02:09:31;;;;;;;21.50;12.75;;;15.00;99.90;;;;;;5513715;25;20048;-69
2024/04/09 02:11:58;;;;;;;18.27;11.68;;;15.00;99.90;;;;;;5512346;25;20037;-69
2024/04/09 02:14:25;;;;;;;21.95;11.80;;;14.90;99.90;;;;;;5528028;25;20047;-69
2024/04/09 02:16:52;;;;;;;19.38;11.02;;;14.90;99.90;;;;;;5504874;25;20046;-69
2024/04/09 02:19:19;;;;;;;21.05;12.15;;;14.90;99.90;;;;;;5534816;25;20033;-69
2024/04/09 02:21:46;;;;;;;22.88;12.27;;;14.90;99.90;;;;;;5531591;25;20036;-69
2024/04/09 02:24:13;;;;;;;21.33;12.90;;;14.80;99.90;;;;;;5523517;25;20046;-69
2024/04/09 02:26:40;;;;;;;23.58;13.00;;;14.90;99.90;;;;;;5516177;25;20037;-69
2024/04/09 02:29:08;;;;;;;23.63;12.23;;;14.80;99.90;;;;;;5532043;25;20029;-69
2024/04/09 02:31:35;;;;;;;24.05;12.98;;;14.80;99.90;;;;;;5535939;25;20037;-69
2024/04/09 02:34:02;;;;;;;20.13;11.48;;;14.80;99.90;;;;;;5527024;25;20369;-69
2024/04/09 02:36:29;;;;;;;19.00;12.32;;;14.80;99.90;;;;;;5526180;25;20020;-69
2024/04/09 02:38:57;;;;;;;20.95;11.98;;;14.80;99.90;;;;;;5511783;25;20033;-69
2024/04/09 02:41:24;;;;;;;18.50;11.32;;;14.80;99.90;;;;;;5509751;25;20112;-69
2024/04/09 02:43:51;;;;;;;20.25;11.60;;;14.80;99.90;;;;;;5522364;25;20025;-69
2024/04/09 02:46:18;;;;;;;21.52;11.10;;;14.80;99.90;;;;;;5499805;25;20105;-69
2024/04/09 02:48:45;;;;;;;18.20;11.93;;;14.80;99.90;;;;;;5530974;25;20482;-69
2024/04/09 02:51:11;;;;;;;18.25;11.52;;;14.80;99.90;;;;;;5523996;25;20037;-69
2024/04/09 02:53:38;;;;;;;19.92;11.15;;;14.80;99.90;;;;;;5532370;25;20044;-70
2024/04/09 02:56:09;;;;;;;21.65;11.60;;;14.80;99.90;;;;;;5533314;25;20397;-69
2024/04/09 02:58:36;;;;;;;22.23;11.52;;;14.80;99.90;;;;;;5511954;25;20044;-69
2024/04/09 03:01:04;;;;;;;16.80;10.93;;;14.80;99.90;;;;;;5527227;25;20033;-69
2024/04/09 03:03:32;;;;;;;16.55;11.02;;;14.80;99.90;;;;;;5523618;25;20029;-69
2024/04/09 03:06:13;;;;;;;17.42;12.05;;;14.70;99.90;;;;;;5521335;25;20363;-69
2024/04/09 03:08:41;;;;;;;21.08;11.82;;;14.80;99.90;;;;;;5502950;25;20034;-69
2024/04/09 03:11:14;;;;;;;20.92;11.15;;;14.80;99.90;;;;;;5518338;25;20033;-69
2024/04/09 03:13:42;;;;;;;21.02;11.57;;;14.80;99.90;;;;;;5531232;25;20037;-69
2024/04/09 03:16:20;;;;;;;16.42;10.98;;;14.80;99.90;;;;;;5513025;25;20465;-69
2024/04/09 03:18:49;;;;;;;15.32;10.07;;;14.80;99.90;;;;;;5506018;25;20031;-69
2024/04/09 03:21:16;;;;;;;14.27;9.57;;;14.70;99.90;;;;;;5536204;25;20028;-69
2024/04/09 03:23:44;;;;;;;18.08;9.98;;;14.70;99.90;;;;;;5522347;25;20469;-69
2024/04/09 03:26:12;;;;;;;14.13;9.43;;;14.70;99.90;;;;;;5520141;25;20025;-69
2024/04/09 03:28:39;;;;;;;16.30;9.20;;;14.70;99.90;;;;;;5524981;25;20050;-69
2024/04/09 03:31:07;;;;;;;19.90;9.57;;;14.70;99.90;;;;;;5532514;25;20037;-69
2024/04/09 03:33:33;;;;;;;14.30;9.40;;;14.70;99.90;;;;;;5518673;25;20018;-69
2024/04/09 03:36:05;;;;;;;14.90;9.25;;;14.70;99.90;;;;;;5522834;25;20360;-69
2024/04/09 03:38:32;;;;;;;13.95;8.20;;;14.60;99.90;;;;;;5520245;25;20025;-69
2024/04/09 03:41:01;;;;;;;13.35;8.50;;;14.60;99.90;;;;;;5507550;25;20619;-69
2024/04/09 03:43:28;;;;;;;15.75;8.45;;;14.60;99.90;;;;;;5521723;25;20375;-69
2024/04/09 03:46:08;;;;;;;15.20;7.35;;;14.60;99.90;;;;;;5507164;25;20026;-69
2024/04/09 03:48:46;;;;;;;12.38;6.95;;;14.60;99.90;;;;;;5506753;25;20034;-69
2024/04/09 03:51:14;;;;;;;13.80;6.15;;;14.50;99.90;;;;;;5521856;25;20060;-69
2024/04/09 03:53:41;;;;;;;9.32;5.20;;;14.50;99.90;;;;;;5546795;25;20024;-69
2024/04/09 03:56:09;;;;;;;9.32;5.60;;;14.40;99.90;;;;;;5527183;25;20038;-69
2024/04/09 03:58:43;;;;;;;8.20;5.03;;;14.40;99.90;;;;;;5508217;25;20038;-69
2024/04/09 04:01:13;;;;;;;8.13;5.00;;;14.40;99.90;;;;;;5513218;25;20034;-69
2024/04/09 04:03:44;;;;;;;9.52;4.80;;;14.30;99.90;;;;;;5496560;25;20037;-69
2024/04/09 04:06:10;;;;;;;9.85;4.53;;;14.30;99.90;;;;;;5505588;25;20027;-70
2024/04/09 04:08:39;;;;;;;6.65;4.10;;;14.30;99.90;;;;;;5519693;25;20033;-69
2024/04/09 04:11:08;;;;;;;6.25;4.25;;;14.20;99.90;;;;;;5529546;25;20040;-69
2024/04/09 04:13:36;;;;;;;7.75;4.25;;;14.20;99.90;;;;;;5543951;25;20025;-69
2024/04/09 04:16:04;;;;;;;7.45;4.53;;;14.20;99.90;;;;;;5523731;25;20037;-69
2024/04/09 04:18:36;;;;;;;8.45;5.13;;;14.20;99.90;;;;;;5516287;25;20036;-69
2024/04/09 04:21:05;;;;;;;9.52;5.18;;;14.20;99.90;;;;;;5518485;25;20037;-69
2024/04/09 04:23:32;;;;;;;8.35;5.63;;;14.20;99.90;;;;;;5538109;25;20029;-69
2024/04/09 04:26:02;;;;;;;13.43;6.18;;;14.20;99.90;;;;;;5525730;25;20041;-69
2024/04/09 04:28:37;;;;;;;9.50;6.38;;;14.20;99.90;;;;;;5497875;25;20037;-69
2024/04/09 04:31:09;;;;;;;12.20;6.13;;;14.20;99.90;;;;;;5533359;25;20049;-69
2024/04/09 04:33:38;;;;;;;13.18;6.78;;;14.20;99.90;;;;;;5514357;25;20033;-69
2024/04/09 04:36:06;;;;;;;13.10;7.13;;;14.20;99.90;;;;;;5520978;25;20104;-69
2024/04/09 04:38:34;;;;;;;10.38;6.50;;;14.20;99.90;;;;;;5520391;25;20025;-69
2024/04/09 04:41:01;;;;;;;11.95;7.03;;;14.10;99.90;;;;;;5507241;25;20040;-69
2024/04/09 04:43:28;;;;;;;12.85;7.00;;;14.10;99.90;;;;;;5526896;25;20029;-69
2024/04/09 04:45:55;;;;;;;11.30;7.30;;;14.10;99.90;;;;;;5516221;25;20034;-69
2024/04/09 04:48:22;;;;;;;12.18;7.10;;;14.10;99.90;;;;;;5515159;25;20039;-69
2024/04/09 04:50:49;;;;;;;9.23;7.47;;;14.10;99.90;;;;;;5507345;25;20037;-69
2024/04/09 04:53:16;;;;;;;13.07;7.97;;;14.10;99.90;;;;;;5517590;25;20032;-69
2024/04/09 04:55:43;;;;;;;17.67;8.45;;;14.10;99.90;;;;;;5507199;25;20034;-69
2024/04/09 04:58:10;;;;;;;12.90;7.88;;;14.00;99.90;;;;;;5506641;25;20037;-69
2024/04/09 05:00:37;;;;;;;13.85;8.07;;;14.00;99.90;;;;;;5528106;25;20044;-69
2024/04/09 05:03:05;;;;;;;15.60;8.07;;;14.00;99.90;;;;;;5505329;25;20038;-69
2024/04/09 05:05:32;;;;;;;11.52;8.50;;;14.00;99.90;;;;;;5524751;25;20369;-69
2024/04/09 05:07:59;;;;;;;15.18;8.35;;;14.00;99.90;;;;;;5520123;25;20360;-69
2024/04/09 05:10:26;;;;;;;13.55;7.95;;;14.00;99.90;;;;;;5512455;25;20032;-69
2024/04/09 05:12:54;;;;;;;13.15;8.02;;;14.00;99.90;;;;;;5532742;25;20030;-69
2024/04/09 05:15:22;;;;;;;10.32;7.95;;;14.00;99.90;;;;;;5507124;25;20032;-69
2024/04/09 05:17:49;;;;;;;12.25;7.75;;;14.00;99.90;;;;;;5500413;25;20030;-69
2024/04/09 05:20:17;;;;;;;15.35;7.65;;;14.00;99.90;;;;;;5523554;25;20719;-69
2024/04/09 05:22:48;;;;;;;10.27;7.22;;;14.00;99.90;;;;;;5529015;25;20479;-69
2024/04/09 05:25:16;;;;;;;11.55;6.90;;;13.90;99.90;;;;;;5512409;25;20105;-69
2024/04/09 05:27:44;;;;;;;13.80;7.10;;;13.90;99.90;;;;;;5504108;25;20038;-69
2024/04/09 05:30:12;;;;;;;10.80;7.38;;;13.90;99.90;;;;;;5510051;25;20048;-69
2024/04/09 05:32:42;;;;;;;10.57;7.07;;;13.90;99.90;;;;;;5539957;25;20475;-69
2024/04/09 05:35:09;;;;;;;12.55;7.40;;;13.90;99.90;;;;;;5521168;25;20049;-69
2024/04/09 05:37:38;;;;;;;14.98;8.02;;;13.90;99.90;;;;;;5519756;25;20444;-69
2024/04/09 05:40:08;;;;;;;12.45;7.70;;;13.90;99.90;;;;;;5491845;25;20033;-69
2024/04/09 05:42:41;;;;;;;12.73;7.38;;;13.80;99.90;;;;;;5516523;25;20492;-69
2024/04/09 05:45:10;;;;;;;14.48;8.40;;;13.80;99.90;;;;;;5534714;25;20037;-69
2024/04/09 05:47:37;;;;;;;12.00;8.15;;;13.80;99.90;;;;;;5520199;25;20037;-69
2024/04/09 05:50:04;;;;;;;15.35;7.88;;;13.80;99.90;;;;;;5502561;25;20045;-69
2024/04/09 05:52:32;;;;;;;12.43;8.00;;;13.80;99.90;;;;;;5500789;25;20030;-69
2024/04/09 05:54:58;;;;;;;13.13;8.38;;;13.80;99.90;;;;;;5543968;25;20029;-69
2024/04/09 05:57:25;;;;;;;13.63;8.80;;;13.80;99.90;;;;;;5512806;25;20032;-68
2024/04/09 05:59:54;;;;;;;17.85;8.68;;;13.70;99.90;;;;;;5506020;25;20383;-68
2024/04/09 06:02:21;;;;;;;12.13;8.45;;;13.70;99.90;;;;;;5500181;25;20042;-68
2024/04/09 06:04:48;;;;;;;13.10;8.30;;;13.70;99.90;;;;;;5502184;25;20033;-68
2024/04/09 06:07:15;;;;;;;13.30;7.78;;;13.60;99.90;;;;;;5511861;25;20036;-68
2024/04/09 06:09:42;;;;;;;17.83;7.53;;;13.50;99.90;;;;;;5501177;25;20042;-68
2024/04/09 06:12:09;;;;;;;15.98;6.97;;;13.50;99.90;;;;;;5508010;25;20049;-68
2024/04/09 06:14:36;;;;;;;13.52;7.00;;;13.40;99.90;;;;;;5507279;25;20034;-68
2024/04/09 06:17:03;;;;;;;15.65;7.18;;;13.30;99.90;;;;;;5508653;25;20022;-68
2024/04/09 06:19:30;;;;;;;16.83;7.70;;;13.30;99.90;;;;;;5504326;25;20029;-68
2024/04/09 06:21:57;;;;;;;17.45;7.25;;;13.30;99.90;;;;;;5503640;25;20049;-69
2024/04/09 06:24:24;;;;;;;15.27;7.15;;;13.30;99.90;;;;;;5506165;25;20037;-69
2024/04/09 06:26:51;;;;;;;13.13;7.10;;;13.30;99.90;;;;;;5511244;25;20025;-68
2024/04/09 06:29:17;;;;;;;16.95;8.45;;;13.20;99.90;;;;;;5505462;25;20057;-68
2024/04/09 06:31:44;;;;;;;15.30;7.25;;;13.20;99.90;;;;;;5525560;25;20045;-69
2024/04/09 06:34:11;;;;;;;14.07;7.00;;;13.20;99.90;;;;;;5529898;25;20033;-68
2024/04/09 06:36:38;;;;;;;17.55;7.07;;;13.20;99.90;;;;;;5494853;25;20384;-69
2024/04/09 06:39:06;;;;;;;14.18;7.13;;;13.30;99.90;;;;;;5490445;25;20030;-69
2024/04/09 06:41:33;;;;;;;17.63;7.35;;;13.30;99.90;;;;;;5497551;25;20378;-69
2024/04/09 06:43:59;;;;;;;16.25;6.75;;;13.30;99.90;;;;;;5520534;25;20022;-69
2024/04/09 06:46:27;;;;;;;13.45;6.78;;;13.40;99.90;;;;;;5525286;25;20036;-69
2024/04/09 06:48:53;;;;;;;14.02;6.05;;;13.40;99.90;;;;;;5500910;25;20469;-69
2024/04/09 06:51:21;;;;;;;12.82;5.85;;;13.40;99.90;;;;;;5514062;25;20380;-68
2024/04/09 06:53:48;;;;;;;9.75;5.60;;;13.30;99.90;;;;;;5498934;25;20493;-68
2024/04/09 06:56:15;;;;;;;14.27;5.57;;;13.40;99.90;;;;;;5515730;25;20042;-69
2024/04/09 06:58:43;;;;;;;13.10;4.88;;;13.30;99.90;;;;;;5515786;25;20026;-68
2024/04/09 07:01:10;;;;;;;13.75;5.13;;;13.30;99.90;;;;;;5520562;25;20425;-68
2024/04/09 07:03:37;;;;;;;13.30;4.40;;;13.30;99.90;;;;;;5495449;25;20033;-69
2024/04/09 07:06:04;;;;;;;13.13;5.22;;;13.30;99.90;;;;;;5505967;25;20026;-69
2024/04/09 07:08:31;;;;;;;14.10;4.53;;;13.30;99.90;;;;;;5520441;25;20395;-69
2024/04/09 07:10:58;;;;;;;10.93;4.30;;;13.30;99.90;;;;;;5498427;25;20038;-69
2024/04/09 07:13:25;;;;;;;11.02;4.78;;;13.20;99.90;;;;;;5507540;25;20034;-69
2024/04/09 07:15:52;;;;;;;10.48;3.97;;;13.20;99.90;;;;;;5502969;25;20044;-69
2024/04/09 07:18:18;;;;;;;10.75;4.55;;;13.20;99.90;;;;;;5500070;25;20060;-69
2024/04/09 07:20:47;;;;;;;9.52;4.60;;;13.20;99.90;;;;;;5544394;25;20029;-69
2024/04/09 07:23:13;;;;;;;14.65;4.95;;;13.20;99.90;;;;;;5495868;25;20034;-69
2024/04/09 07:25:41;;;;;;;13.00;4.63;;;13.10;99.90;;;;;;5503786;25;20033;-69
2024/04/09 07:28:07;;;;;;;13.05;5.10;;;13.20;99.90;;;;;;5493369;25;20037;-69
2024/04/09 07:30:37;;;;;;;12.07;4.28;;;13.20;99.90;;;;;;5529276;25;20030;-69
2024/04/09 07:33:04;;;;;;;13.10;4.93;;;13.20;99.90;;;;;;5509548;25;20033;-69
2024/04/09 07:35:32;;;;;;;12.27;4.53;;;13.20;99.90;;;;;;5495999;25;20037;-69
2024/04/09 07:38:00;;;;;;;9.40;5.32;;;13.30;99.90;;;;;;5545438;25;20029;-70
2024/04/09 07:40:27;;;;;;;13.85;4.72;;;13.30;99.90;;;;;;5503863;25;20041;-69
2024/04/09 07:42:55;;;;;;;12.02;4.35;;;13.40;99.90;;;;;;5526908;25;20021;-69
2024/04/09 07:45:22;;;;;;;11.85;4.13;;;13.40;99.90;;;;;;5505282;25;20476;-69
2024/04/09 07:47:51;;;;;;;16.38;4.03;;;13.30;99.90;;;;;;5512299;25;20033;-69
2024/04/09 07:50:19;;;;;;;7.75;3.05;;;13.30;99.90;;;;;;5500542;25;20022;-69
2024/04/09 07:52:46;;;;;;;10.60;3.85;;;13.30;99.90;;;;;;5496304;25;20037;-69
2024/04/09 07:55:13;;;;;;;12.18;3.80;;;13.30;99.90;;;;;;5512949;25;20034;-69
2024/04/09 07:57:44;;;;;;;11.27;3.33;;;13.30;99.90;;;;;;5519772;25;20030;-69
2024/04/09 08:00:14;;;;;;;10.32;3.97;;;13.30;99.90;;;;;;5518133;25;20029;-69
2024/04/09 08:02:41;;;;;;;14.93;4.82;;;13.30;99.90;;;;;;5515218;25;20038;-69
2024/04/09 08:05:12;;;;;;;8.90;4.15;;;13.20;99.90;;;;;;5497375;25;20033;-69
2024/04/09 08:07:39;;;;;;;12.93;4.22;;;13.20;99.90;;;;;;5510177;25;20030;-69
2024/04/09 08:10:11;;;;;;;11.30;4.28;;;13.20;99.90;;;;;;5534531;25;21295;-69
2024/04/09 08:12:54;;;;;;;11.70;4.20;;;13.20;99.90;;;;;;5532983;25;20022;-69
2024/04/09 08:15:22;;;;;;;14.48;4.07;;;13.30;99.90;;;;;;5512044;25;20472;-70
2024/04/09 08:17:50;;;;;;;12.43;4.28;;;13.30;99.90;;;;;;5511698;25;20025;-69
2024/04/09 08:20:17;;;;;;;10.93;5.13;;;13.40;99.90;;;;;;5506931;25;20500;-69
2024/04/09 08:22:49;;;;;;;7.53;4.70;;;13.40;99.90;;;;;;5520677;25;20037;-69
2024/04/09 08:25:16;;;;;;;11.18;4.47;;;13.50;99.90;;;;;;5504351;25;20041;-69
2024/04/09 08:27:43;;;;;;;11.75;5.60;;;13.50;99.90;;;;;;5513945;25;20037;-70
2024/04/09 08:30:13;;;;;;;10.25;5.18;;;13.50;99.90;;;;;;5522160;25;20481;-69
2024/04/09 08:32:42;;;;;;;10.93;5.72;;;13.60;99.90;;;;;;5503859;25;20025;-70
2024/04/09 08:35:11;;;;;;;13.70;5.80;;;13.60;99.90;;;;;;5510127;25;20038;-70
2024/04/09 08:37:41;;;;;;;9.90;5.35;;;13.60;99.90;;;;;;5516670;25;20041;-70
2024/04/09 08:40:11;;;;;;;11.15;5.18;;;13.60;99.90;;;;;;5508727;25;20037;-70
2024/04/09 08:42:39;;;;;;;9.05;5.45;;;13.60;99.90;;;;;;5501758;25;20383;-70
2024/04/09 08:45:14;;;;;;;9.80;5.20;;;13.60;99.90;;;;;;5512260;25;20034;-70
2024/04/09 08:47:42;;;;;;;10.32;5.32;;;13.60;99.90;;;;;;5508227;25;20029;-70
2024/04/09 08:50:12;;;;;;;9.82;5.20;;;13.60;99.90;;;;;;5499368;25;20022;-70
2024/04/09 08:52:40;;;;;;;11.73;5.70;;;13.70;99.90;;;;;;5507838;25;20033;-70
2024/04/09 08:55:07;;;;;;;9.57;4.80;;;13.80;99.90;;;;;;5527588;25;20023;-70
2024/04/09 08:57:35;;;;;;;10.05;5.43;;;13.90;99.90;;;;;;5499007;25;20393;-70
2024/04/09 09:00:06;;;;;;;9.75;5.18;;;14.00;99.90;;;;;;5515961;25;20034;-70
2024/04/09 09:02:35;;;;;;;9.60;4.32;;;14.00;99.90;;;;;;5521492;25;20028;-70
2024/04/09 09:05:02;;;;;;;7.05;3.88;;;14.10;99.90;;;;;;5528841;25;20042;-70
2024/04/09 09:07:29;;;;;;;8.13;3.67;;;14.10;99.90;;;;;;5522964;25;20037;-70
2024/04/09 09:10:01;;;;;;;8.77;3.65;;;14.10;99.90;;;;;;5513251;25;20029;-70
2024/04/09 09:12:28;;;;;;;6.35;3.53;;;14.20;99.90;;;;;;5511478;25;20034;-70
2024/04/09 09:15:00;;;;;;;7.47;3.65;;;14.30;99.90;;;;;;5507991;25;20030;-70
2024/04/09 09:17:31;;;;;;;8.68;4.10;;;14.50;99.90;;;;;;5492364;25;20033;-70
2024/04/09 09:20:08;;;;;;;6.60;3.53;;;14.60;99.90;;;;;;5501813;25;20035;-70
2024/04/09 09:22:43;;;;;;;8.52;2.53;;;14.60;99.90;;;;;;5506861;25;20101;-70
2024/04/09 09:25:18;;;;;;;7.32;1.98;;;14.70;99.90;;;;;;5511666;25;20029;-70
2024/04/09 09:27:45;;;;;;;3.97;1.50;;;14.60;99.90;;;;;;5532592;25;20024;-70
2024/04/09 09:30:13;;;;;;;4.20;1.58;;;14.50;99.90;;;;;;5509911;25;20493;-70
2024/04/09 09:32:47;;;;;;;5.50;1.65;;;14.40;99.90;;;;;;5499016;25;20034;-70
2024/04/09 09:35:19;;;;;;;6.22;1.52;;;14.30;99.90;;;;;;5513095;25;20030;-70
2024/04/09 09:37:49;;;;;;;4.25;1.63;;;14.30;99.90;;;;;;5520286;25;20026;-70
2024/04/09 09:40:16;;;;;;;6.63;1.98;;;14.30;99.90;;;;;;5515113;25;20045;-70
2024/04/09 09:42:46;;;;;;;7.57;1.80;;;14.20;99.90;;;;;;5504542;25;20036;-70
2024/04/09 09:45:14;;;;;;;3.63;1.52;;;14.00;99.90;;;;;;5519587;25;20029;-70
2024/04/09 09:47:41;;;;;;;6.28;1.88;;;14.00;99.90;;;;;;5517116;25;20067;-70
2024/04/09 09:50:08;;;;;;;4.68;1.70;;;14.10;99.90;;;;;;5509256;25;20033;-70
2024/04/09 09:52:36;;;;;;;6.72;1.83;;;14.00;99.90;;;;;;5510958;25;20025;-70
2024/04/09 09:55:04;;;;;;;5.22;2.00;;;14.10;99.90;;;;;;5528023;25;20037;-70
2024/04/09 09:57:34;;;;;;;5.90;1.83;;;14.20;99.90;;;;;;5526874;25;20029;-70
2024/04/09 10:00:10;;;;;;;7.80;1.73;;;14.40;99.90;;;;;;5514519;25;20374;-70
2024/04/09 10:02:41;;;;;;;8.65;2.00;;;14.60;99.90;;;;;;5516707;25;20026;-70
2024/04/09 10:05:08;;;;;;;5.53;1.65;;;14.80;99.90;;;;;;5499918;25;20022;-70
2024/04/09 10:07:35;;;;;;;9.68;1.88;;;15.00;99.90;;;;;;5505814;25;20401;-70
2024/04/09 10:10:02;;;;;;;6.28;2.13;;;15.20;99.90;;;;;;5520356;25;20037;-70
2024/04/09 10:12:30;;;;;;;5.72;1.80;;;15.20;99.90;;;;;;5524819;25;20028;-70
2024/04/09 10:15:01;;;;;;;7.03;2.22;;;15.10;99.90;;;;;;5509803;25;20034;-70
2024/04/09 10:17:47;;;;;;;5.15;1.83;;;15.10;99.90;;;;;;5524804;25;20387;-70
2024/04/09 10:20:17;;;;;;;9.27;2.30;;;14.90;99.90;;;;;;5519236;25;20021;-70
2024/04/09 10:22:45;;;;;;;5.22;2.30;;;14.80;99.90;;;;;;5507467;25;20042;-70
2024/04/09 10:25:19;;;;;;;6.90;2.00;;;14.80;99.90;;;;;;5490819;25;20030;-70
2024/04/09 10:27:47;;;;;;;8.68;2.00;;;14.80;99.90;;;;;;5526828;25;20029;-70
2024/04/09 10:30:16;;;;;;;6.90;1.92;;;14.80;99.90;;;;;;5498380;25;20033;-69
2024/04/09 10:32:55;;;;;;;4.50;1.70;;;15.00;99.90;;;;;;5509273;25;20497;-70
2024/04/09 10:35:25;;;;;;;6.72;1.58;;;15.00;99.90;;;;;;5514726;25;20006;-71
2024/04/09 10:37:54;;;;;;;4.13;1.50;;;14.90;99.90;;;;;;5513972;25;20033;-70
2024/04/09 10:40:21;;;;;;;5.38;1.60;;;14.80;99.90;;;;;;5499644;25;20038;-70
2024/04/09 10:42:49;;;;;;;4.60;1.20;;;14.70;99.90;;;;;;5523809;25;20041;-70
2024/04/09 10:45:16;;;;;;;3.47;1.35;;;14.70;99.90;;;;;;5521105;25;20044;-70
2024/04/09 10:47:44;;;;;;;4.47;1.88;;;14.60;99.90;;;;;;5505161;25;20398;-69
2024/04/09 10:50:14;;;;;;;7.20;1.60;;;14.80;99.90;;;;;;5503736;25;20042;-69
2024/04/09 10:52:42;;;;;;;5.13;1.30;;;15.00;99.90;;;;;;5505419;25;20037;-70
2024/04/09 10:55:16;;;;;;;5.97;1.80;;;15.20;99.90;;;;;;5511804;25;20049;-70
2024/04/09 10:57:51;;;;;;;5.13;1.50;;;15.30;99.90;;;;;;5525884;25;20406;-69
2024/04/09 11:00:18;;;;;;;6.20;1.48;;;15.20;99.90;;;;;;5512602;25;20029;-70
2024/04/09 11:02:46;;;;;;;6.75;1.58;;;15.10;99.90;;;;;;5495504;25;20368;-70
2024/04/09 11:05:16;;;;;;;5.65;1.50;;;14.90;99.90;;;;;;5522386;25;20057;-70
2024/04/09 11:07:45;;;;;;;4.40;1.50;;;14.70;99.90;;;;;;5528948;25;20096;-70
2024/04/09 11:10:14;;;;;;;5.18;1.42;;;14.50;99.90;;;;;;5511862;25;20369;-70
2024/04/09 11:12:49;;;;;;;6.28;1.90;;;14.50;99.90;;;;;;5514822;25;20472;-70
2024/04/09 11:15:16;;;;;;;5.13;1.52;;;14.50;99.90;;;;;;5502901;25;20369;-70
2024/04/09 11:17:43;;;;;;;5.53;1.73;;;14.40;99.90;;;;;;5508215;25;20053;-70
2024/04/09 11:20:15;;;;;;;4.38;1.50;;;14.40;99.90;;;;;;5508190;25;20381;-70
2024/04/09 11:22:41;;;;;;;5.70;1.40;;;14.40;99.90;;;;;;5527230;25;20029;-70
2024/04/09 11:25:19;;;;;;;8.35;1.58;;;14.30;99.90;;;;;;5507375;25;20397;-70
2024/04/09 11:27:50;;;;;;;5.75;1.83;;;14.30;99.90;;;;;;5512022;25;20025;-70
2024/04/09 11:30:29;;;;;;;5.72;1.65;;;14.10;99.90;;;;;;5513687;25;20033;-71
2024/04/09 11:32:56;;;;;;;7.13;1.40;;;14.10;99.90;;;;;;5521675;25;20021;-70
2024/04/09 11:35:25;;;;;;;6.63;1.30;;;14.10;99.90;;;;;;5518842;25;20025;-70
2024/04/09 11:37:57;;;;;;;4.25;1.20;;;14.20;99.90;;;;;;5523397;25;20026;-70
2024/04/09 11:40:24;;;;;;;4.07;1.27;;;14.20;99.90;;;;;;5519647;25;20489;-70
2024/04/09 11:42:53;;;;;;;4.30;1.17;;;14.20;99.90;;;;;;5517220;25;20025;-70
2024/04/09 11:45:34;;;;;;;5.22;1.48;;;14.20;99.90;;;;;;5529116;25;20033;-70
2024/04/09 11:48:03;;;;;;;4.93;1.15;;;14.10;99.90;;;;;;5513400;25;20033;-71
2024/04/09 11:50:30;;;;;;;8.20;1.60;;;14.10;99.90;;;;;;5505983;25;20029;-70
2024/04/09 11:52:56;;;;;;;4.60;1.20;;;14.00;99.90;;;;;;5520881;25;20034;-70
2024/04/09 11:55:23;;;;;;;4.82;1.20;;;14.00;99.90;;;;;;5516814;25;20037;-71
2024/04/09 11:57:50;;;;;;;4.95;1.08;;;14.00;99.90;;;;;;5519955;25;20022;-71
2024/04/09 12:00:18;;;;;;;4.68;1.33;;;14.00;99.90;;;;;;5498672;25;20059;-71
2024/04/09 12:02:45;;;;;;;7.40;1.50;;;14.00;99.90;;;;;;5516040;25;20033;-71
2024/04/09 12:05:14;;;;;;;4.22;1.30;;;14.00;99.90;;;;;;5522739;25;20045;-71
2024/04/09 12:07:41;;;;;;;6.20;1.42;;;14.00;99.90;;;;;;5508172;25;20041;-71
2024/04/09 12:10:09;;;;;;;5.85;1.35;;;14.00;99.90;;;;;;5509554;25;20045;-71
2024/04/09 12:12:38;;;;;;;5.22;1.63;;;13.90;99.90;;;;;;5520309;25;20033;-71
2024/04/09 12:15:05;;;;;;;6.82;1.40;;;14.00;99.90;;;;;;5524373;25;20029;-71
2024/04/09 12:17:32;;;;;;;3.08;1.15;;;14.00;99.90;;;;;;5498026;25;20473;-71
2024/04/09 12:19:59;;;;;;;5.05;1.17;;;13.90;99.90;;;;;;5507927;25;20034;-70
2024/04/09 12:22:26;;;;;;;4.55;1.17;;;13.90;99.90;;;;;;5523922;25;20056;-71
2024/04/09 12:24:53;;;;;;;6.35;1.27;;;13.80;99.90;;;;;;5518413;25;20025;-71
2024/04/09 12:27:20;;;;;;;3.15;1.00;;;13.80;99.90;;;;;;5537129;25;20464;-71
2024/04/09 12:29:47;;;;;;;9.50;1.80;;;13.80;99.90;;;;;;5517211;25;20038;-70
2024/04/09 12:32:14;;;;;;;7.20;1.60;;;13.80;99.90;;;;;;5519324;25;20008;-71
2024/04/09 12:34:41;;;;;;;3.53;1.23;;;13.80;99.90;;;;;;5511838;25;20029;-71
2024/04/09 12:37:07;;;;;;;6.72;1.27;;;13.70;99.90;;;;;;5523734;25;20025;-71
2024/04/09 12:39:34;;;;;;;5.18;0.98;;;13.70;99.90;;;;;;5529870;25;20041;-71
2024/04/09 12:42:01;;;;;;;5.10;1.15;;;13.60;99.90;;;;;;5522600;25;20030;-70
2024/04/09 12:44:29;;;;;;;3.60;1.42;;;13.50;99.90;;;;;;5540470;25;20037;-71